Pays
Station

 

Conditions  météo  pour  Shepherd Bay, N. W. T.  -  Canada    Canada

  
-4 °C
    
 
 

METAR pour Shepherd Bay, N. W. T. :

CYUS 230400Z AUTO 11014KT 100V210 ////SM //// OVC012 M04/M04 A2985

 

Voici le bulletin pour Shepherd Bay, N. W. T. - Canada.
 
Le bulletin a été fait il y a 36 minutes, à 04:00 UTC .
Le vent soufflait à la vitesse de 7.2 mètres par seconde de Est/Sud-est (110°), variant entre Est (100°) et Sud/Sud-ouest (210°).
 
La température était de -4 °C, avec un point de rosée à -4 °C.
La température ressentie était de -11 °C.
 
La pression atmosphérique était de 1011 hPa.
L'humidité relative était de 100.0%.
 
Le ciel était nuageux à partir d'une hauteur de 366 mètres
 

 
 
 

Pays :   A   B   C   D   E   F   G   H   I   J   K   L   M   N   O   P   Q   R   S   T   U   V   W   Y   Z

 

Partenaires :  Info Météo avec Met'info
Météo Marine avec MeteoMarine.net
Infos Site  |  Infos Légales  |  Crédits  |  Confidentialité
Contactez-nous  |  Ajouter aux favoris
© 2013-2018 METAR - Tous droits réservés